Pagrindinis puslapis
METAR-TAF:

METAR-TAF

Oro uostai :

Asaluyeh, Iranas

platuma: 27-22-46N, ilguma: 52-44-15E, Aukštis: 8 m

Dabartinis oras

Ataskaita buvo paskelbta 38 minutes, ne 12:30 UTC
Vėjas 8 kt iš Vakarų
Temperatūra 38°C
Drėgmė 64%
Slėgis 995 hPa
Matomumas: 1200 m
dulkės

METAR: OIBP 181230Z 26008KT 1200 DU NSC 38/30 Q0995 A2938

Laikas: 17:38 (13:08 UTC)

Prognozė

Ataskaita buvo paskelbta 2 valandos ir 8 minutes, ne 11:00 UTC
Prognozė galioja nuo 18 metu 12 UTC su 18 metu 21 UTC
Vėjas 8 kt iš Vakarų/Pietvakarių
Matomumas: 4000 m
migla
Laikinai
nuo 18 metu 12 UTC su 18 metu 15 UTC
Vėjas 14 kt iš Vakarų/Pietvakarių
Tapsmas
nuo 18 metu 18 UTC su 18 metu 20 UTC
Vėjas 4 kt iš Šiaurės/Šiaurės Rytų
Matomumas: 3000 m
rūkana

TAF: OIBP 181100Z 1812/1821 24008KT 4000 HZ NSC TEMPO 1812/1815 24014KT BECMG 1818/1820 03004KT 3000 BR

Orai ataskaitas ir orų prognozės (METAR, TAF).

turimą stotys yra geltonos ir raudonos taškus žemėlapyje.

Perkelti pele per norėdami pamatyti stoties vardą.

Tada spustelėkite, norėdami matyti oro stebėjimo ir prognozės.

Norėdami pakeisti žemėlapį: spustelėkite ant žalios mygtukų su juodo kryžiaus žemyn,; žalią mygtuką su brūkšneliu, jei norite nutolinti; arba žalių rodyklių gretimoms žemėlapius.


METAR-TAF: